Time;durP1;ratioP1;P1;durP2;ratioP2;P2;SDS_P1;SDS_P2;PMS_P1;PMS_P2;Temp;Humidity;BMP_temperature;BMP_pressure;BME280_temperature;BME280_humidity;BME280_pressure;Samples;Min_cycle;Max_cycle;Signal;HPM_P1;HPM_P2
2021/01/02 00:00:24;;;;;;;28.85;7.65;;;16.30;62.10;;;;;;1058063;27;20035;-74
2021/01/02 00:00:55;;;;;;;23.88;7.70;;;16.30;62.20;;;;;;1060583;27;20020;-73
2021/01/02 00:01:29;;;;;;;30.88;7.57;;;16.20;62.20;;;;;;1061417;27;20476;-73
2021/01/02 00:02:18;;;;;;;32.38;8.10;;;16.30;62.20;;;;;;1060885;27;20019;-73
2021/01/02 00:03:02;;;;;;;28.88;7.88;;;16.20;62.50;;;;;;1060474;27;20563;-74
2021/01/02 00:03:48;;;;;;;29.02;7.53;;;16.10;62.70;;;;;;1062167;27;20434;-72
2021/01/02 00:04:47;;;;;;;25.00;7.30;;;16.20;62.70;;;;;;1057928;27;20346;-75
2021/01/02 00:05:22;;;;;;;31.02;7.97;;;16.10;63.00;;;;;;1061204;27;20022;-73
2021/01/02 00:06:07;;;;;;;27.95;7.85;;;16.10;62.80;;;;;;1062097;27;20065;-73
2021/01/02 00:06:58;;;;;;;27.17;7.90;;;16.10;62.80;;;;;;1066229;27;20026;-74
2021/01/02 00:08:00;;;;;;;25.08;7.82;;;16.00;62.90;;;;;;1064208;27;20023;-75
2021/01/02 00:08:32;;;;;;;27.90;7.32;;;16.00;63.60;;;;;;1064585;27;20139;-75
2021/01/02 00:09:08;;;;;;;23.35;7.95;;;16.00;62.80;;;;;;1057324;28;20066;-73
2021/01/02 00:09:43;;;;;;;27.02;7.95;;;15.90;63.70;;;;;;1059833;27;20050;-74
2021/01/02 00:10:19;;;;;;;26.58;7.53;;;15.90;63.10;;;;;;1055967;28;20028;-74
2021/01/02 00:11:17;;;;;;;32.38;8.80;;;15.90;63.40;;;;;;1060006;27;20465;-74
2021/01/02 00:12:20;;;;;;;30.13;8.20;;;15.90;63.30;;;;;;1056603;27;20023;-75
2021/01/02 00:13:22;;;;;;;27.70;8.13;;;15.80;63.20;;;;;;1061657;27;20102;-75
2021/01/02 00:14:25;;;;;;;25.58;7.72;;;15.90;63.00;;;;;;1064749;27;20027;-74
2021/01/02 00:15:06;;;;;;;29.02;7.80;;;15.80;62.90;;;;;;1066298;27;20329;-74
2021/01/02 00:15:55;;;;;;;34.72;8.18;;;15.80;63.00;;;;;;1063995;27;20478;-73
2021/01/02 00:16:54;;;;;;;22.10;7.18;;;15.80;63.10;;;;;;1063503;27;20015;-73
2021/01/02 00:17:46;;;;;;;27.08;7.70;;;15.80;62.60;;;;;;1060767;27;20063;-74
2021/01/02 00:18:21;;;;;;;23.23;6.80;;;15.80;62.40;;;;;;1059650;27;20034;-72
2021/01/02 00:19:30;;;;;;;21.50;7.13;;;15.80;62.60;;;;;;1060382;27;20028;-72
2021/01/02 00:20:07;;;;;;;26.10;7.72;;;15.80;62.60;;;;;;1060474;27;20034;-72
2021/01/02 00:20:50;;;;;;;27.27;7.57;;;15.70;62.60;;;;;;1054317;28;20106;-72
2021/01/02 00:21:26;;;;;;;22.35;6.88;;;15.70;62.80;;;;;;1053016;28;20040;-72
2021/01/02 00:22:11;;;;;;;25.00;7.68;;;15.60;62.90;;;;;;1058481;27;20004;-72
2021/01/02 00:23:18;;;;;;;24.98;7.10;;;15.70;63.10;;;;;;1064926;27;20017;-73
2021/01/02 00:24:04;;;;;;;21.42;6.90;;;15.60;63.20;;;;;;1046491;28;20504;-72
2021/01/02 00:24:38;;;;;;;20.63;6.60;;;15.60;63.40;;;;;;1046013;28;20021;-72
2021/01/02 00:25:14;;;;;;;23.50;7.32;;;15.60;63.50;;;;;;1062962;27;20336;-73
2021/01/02 00:25:56;;;;;;;25.80;7.40;;;15.50;63.60;;;;;;1065332;27;20006;-73
2021/01/02 00:26:34;;;;;;;23.70;7.22;;;15.50;63.70;;;;;;1065860;27;20025;-73
2021/01/02 00:27:09;;;;;;;24.33;6.88;;;15.50;63.70;;;;;;1063071;27;19999;-73
2021/01/02 00:27:59;;;;;;;22.83;6.50;;;15.50;63.80;;;;;;1058928;27;20012;-73
2021/01/02 00:28:34;;;;;;;21.58;7.03;;;15.40;63.70;;;;;;1057869;27;20380;-72
2021/01/02 00:29:15;;;;;;;24.13;6.60;;;15.40;63.50;;;;;;1059210;27;20137;-72
2021/01/02 00:30:02;;;;;;;27.25;6.97;;;15.40;63.30;;;;;;1058533;27;20445;-74
2021/01/02 00:30:58;;;;;;;18.55;6.50;;;15.40;63.30;;;;;;1061437;27;20042;-73
2021/01/02 00:32:03;;;;;;;24.33;6.60;;;15.30;63.20;;;;;;1061079;27;20015;-72
2021/01/02 00:32:55;;;;;;;25.45;6.97;;;15.30;63.30;;;;;;1066217;27;20023;-72
2021/01/02 00:34:03;;;;;;;25.50;6.53;;;15.30;63.50;;;;;;1066445;27;20447;-72
2021/01/02 00:34:52;;;;;;;23.92;6.72;;;15.30;63.50;;;;;;1057363;28;20429;-72
2021/01/02 00:35:25;;;;;;;28.42;7.45;;;15.20;63.60;;;;;;1055084;28;20016;-73
2021/01/02 00:36:06;;;;;;;21.42;6.53;;;15.20;63.90;;;;;;1053281;28;20485;-73
2021/01/02 00:36:42;;;;;;;;;;;15.20;64.10;;;;;;1055402;28;20087;-73
2021/01/02 00:37:15;;;;;;;20.10;5.90;;;15.20;64.20;;;;;;1060193;27;19946;-73
2021/01/02 00:38:06;;;;;;;25.10;6.85;;;15.20;64.10;;;;;;1064754;27;20345;-72
2021/01/02 00:38:38;;;;;;;26.58;6.07;;;15.10;64.90;;;;;;1063879;27;20007;-72
2021/01/02 00:39:21;;;;;;;19.92;5.93;;;15.10;64.20;;;;;;1063566;27;20018;-72
2021/01/02 00:40:05;;;;;;;21.92;6.18;;;15.00;64.20;;;;;;1063597;27;20512;-73
2021/01/02 00:40:38;;;;;;;18.83;6.10;;;15.00;64.00;;;;;;1062857;27;20367;-73
2021/01/02 00:41:12;;;;;;;22.98;6.47;;;15.00;64.10;;;;;;1064320;27;20011;-73
2021/01/02 00:41:46;;;;;;;22.73;6.55;;;14.90;64.30;;;;;;1063300;27;20336;-73
2021/01/02 00:42:19;;;;;;;21.10;5.90;;;14.90;64.60;;;;;;1058571;27;20016;-73
2021/01/02 00:42:50;;;;;;;22.23;6.18;;;14.90;64.80;;;;;;1052917;28;20621;-73
2021/01/02 00:43:22;;;;;;;20.50;6.38;;;14.80;64.90;;;;;;1054574;28;20422;-73
2021/01/02 00:43:54;;;;;;;21.58;6.18;;;14.80;65.10;;;;;;1055118;27;20016;-74
2021/01/02 00:44:26;;;;;;;24.25;6.25;;;14.80;65.20;;;;;;1060681;27;20461;-73
2021/01/02 00:45:03;;;;;;;24.55;6.97;;;14.70;65.20;;;;;;1065263;27;20112;-72
2021/01/02 00:45:35;;;;;;;22.27;6.88;;;14.70;65.40;;;;;;1061811;27;20122;-72
2021/01/02 00:46:07;;;;;;;22.98;6.50;;;14.70;65.70;;;;;;1058676;27;20008;-73
2021/01/02 00:46:39;;;;;;;20.98;6.03;;;14.70;65.80;;;;;;1059193;27;20099;-73
2021/01/02 00:47:11;;;;;;;21.55;6.78;;;14.60;66.00;;;;;;1056235;27;20061;-72
2021/01/02 00:47:43;;;;;;;26.77;6.60;;;14.60;66.10;;;;;;1060575;27;20524;-72
2021/01/02 00:48:16;;;;;;;20.00;6.63;;;14.60;66.10;;;;;;1062670;27;20528;-72
2021/01/02 00:48:48;;;;;;;23.27;6.55;;;14.60;66.20;;;;;;1058114;27;20483;-72
2021/01/02 00:49:20;;;;;;;22.90;6.05;;;14.60;66.30;;;;;;1061748;27;20078;-72
2021/01/02 00:49:55;;;;;;;23.70;6.68;;;14.50;66.40;;;;;;1059132;27;20023;-72
2021/01/02 00:50:28;;;;;;;21.35;6.55;;;14.60;66.80;;;;;;1058805;27;20445;-72
2021/01/02 00:51:01;;;;;;;16.67;6.20;;;14.50;66.80;;;;;;1062216;27;20053;-72
2021/01/02 00:51:37;;;;;;;19.17;6.55;;;14.50;66.70;;;;;;1062898;27;20030;-72
2021/01/02 00:52:37;;;;;;;24.17;6.50;;;14.50;66.80;;;;;;1065181;27;20018;-72
2021/01/02 00:53:21;;;;;;;25.70;7.22;;;14.50;66.90;;;;;;1063040;27;20080;-73
2021/01/02 00:53:55;;;;;;;24.85;6.47;;;14.50;67.20;;;;;;1065617;27;20033;-74
2021/01/02 00:55:05;;;;;;;22.58;6.47;;;14.50;67.10;;;;;;1062677;27;20031;-73
2021/01/02 00:55:39;;;;;;;24.90;6.63;;;14.50;67.10;;;;;;1047343;28;20029;-73
2021/01/02 00:56:42;;;;;;;25.45;6.40;;;14.40;67.10;;;;;;1044063;28;20451;-73
2021/01/02 00:57:57;;;;;;;24.17;6.88;;;14.40;67.40;;;;;;1058263;27;20066;-74
2021/01/02 00:58:51;;;;;;;20.70;6.40;;;14.40;67.20;;;;;;1036809;28;20054;-73
2021/01/02 00:59:46;;;;;;;24.00;6.00;;;14.40;67.40;;;;;;1036396;28;20033;-73
2021/01/02 01:00:22;;;;;;;21.33;6.03;;;14.40;67.40;;;;;;1039609;28;20125;-73
2021/01/02 01:01:13;;;;;;;21.33;5.65;;;14.30;67.40;;;;;;1037566;28;20049;-72
2021/01/02 01:01:49;;;;;;;28.55;6.55;;;14.30;67.60;;;;;;1060777;27;20025;-73
2021/01/02 01:03:05;;;;;;;23.52;6.78;;;14.30;68.10;;;;;;1062384;27;20011;-73
2021/01/02 01:04:09;;;;;;;21.77;6.38;;;14.20;68.30;;;;;;1061848;27;20011;-73
2021/01/02 01:04:43;;;;;;;19.73;5.78;;;14.20;68.30;;;;;;1057402;27;20077;-73
2021/01/02 01:05:20;;;;;;;21.65;6.00;;;14.20;68.30;;;;;;1059028;27;20441;-75
2021/01/02 01:05:55;;;;;;;26.42;6.53;;;14.20;68.30;;;;;;1056366;28;20027;-75
2021/01/02 01:06:30;;;;;;;23.65;6.35;;;14.20;68.10;;;;;;1058938;27;20023;-74
2021/01/02 01:07:02;;;;;;;22.20;6.30;;;14.30;68.30;;;;;;1058018;27;20019;-74
2021/01/02 01:07:36;;;;;;;22.50;5.75;;;14.20;68.20;;;;;;1065271;27;20116;-74
2021/01/02 01:08:07;;;;;;;22.90;6.60;;;14.20;68.40;;;;;;1056709;27;20475;-74
2021/01/02 01:08:44;;;;;;;23.95;6.03;;;14.20;68.40;;;;;;1056176;27;20016;-74
2021/01/02 01:09:22;;;;;;;22.00;5.95;;;14.20;68.20;;;;;;1062470;27;20034;-73
2021/01/02 01:09:59;;;;;;;22.08;5.93;;;14.20;68.40;;;;;;1066679;27;20394;-72
2021/01/02 01:10:35;;;;;;;22.42;5.70;;;14.20;68.80;;;;;;1065562;27;20336;-73
2021/01/02 01:11:10;;;;;;;21.45;6.20;;;14.20;68.80;;;;;;1059590;27;20524;-73
2021/01/02 01:11:45;;;;;;;25.38;6.55;;;14.10;68.80;;;;;;1061180;27;20404;-73
2021/01/02 01:12:19;;;;;;;17.60;5.88;;;14.10;68.70;;;;;;1058194;27;20024;-73
2021/01/02 01:13:08;;;;;;;17.35;5.70;;;14.20;69.50;;;;;;1061475;27;20027;-73
2021/01/02 01:13:40;;;;;;;17.48;5.90;;;14.20;69.00;;;;;;1059909;27;20033;-73
2021/01/02 01:14:12;;;;;;;19.83;6.05;;;14.20;68.90;;;;;;1058466;27;20100;-73
2021/01/02 01:14:45;;;;;;;21.38;6.05;;;14.20;68.80;;;;;;1052962;28;20020;-74
2021/01/02 01:15:17;;;;;;;23.95;6.45;;;14.20;68.80;;;;;;1056516;27;20067;-73
2021/01/02 01:15:49;;;;;;;20.23;6.47;;;14.20;68.70;;;;;;1062159;27;20020;-73
2021/01/02 01:16:25;;;;;;;23.10;6.53;;;14.20;68.80;;;;;;1065863;27;20023;-73
2021/01/02 01:17:02;;;;;;;25.95;6.25;;;14.20;68.90;;;;;;1065518;27;20118;-73
2021/01/02 01:18:07;;;;;;;22.45;5.93;;;14.20;68.90;;;;;;1065853;27;20130;-73
2021/01/02 01:18:54;;;;;;;22.90;5.65;;;14.20;69.00;;;;;;1057294;27;20039;-73
2021/01/02 01:19:29;;;;;;;23.90;6.45;;;14.20;69.10;;;;;;1062513;27;20499;-73
2021/01/02 01:20:03;;;;;;;23.13;6.68;;;14.10;69.20;;;;;;1062976;27;20015;-73
2021/01/02 01:20:58;;;;;;;22.17;6.18;;;14.10;69.30;;;;;;1059648;27;20015;-73
2021/01/02 01:21:36;;;;;;;25.63;6.10;;;14.10;69.90;;;;;;1060350;27;20023;-74
2021/01/02 01:22:12;;;;;;;25.60;6.28;;;14.00;69.70;;;;;;1058300;27;20537;-73
2021/01/02 01:23:13;;;;;;;17.88;5.55;;;14.10;69.70;;;;;;1065425;27;20456;-73
2021/01/02 01:24:08;;;;;;;24.45;5.80;;;14.00;69.60;;;;;;1040093;28;20024;-72
2021/01/02 01:24:55;;;;;;;23.85;6.55;;;14.00;69.50;;;;;;1051433;27;20104;-73
2021/01/02 01:25:52;;;;;;;25.23;6.22;;;14.00;69.50;;;;;;1059822;27;20034;-72
2021/01/02 01:26:57;;;;;;;21.38;5.85;;;14.00;69.90;;;;;;1061889;27;20098;-72
2021/01/02 01:27:48;;;;;;;21.10;6.13;;;13.90;70.00;;;;;;1065904;27;20329;-72
2021/01/02 01:28:25;;;;;;;21.80;5.80;;;13.90;70.20;;;;;;1065500;27;20022;-73
2021/01/02 01:28:59;;;;;;;17.40;5.22;;;13.80;70.30;;;;;;1063084;27;20023;-73
2021/01/02 01:29:48;;;;;;;18.88;5.43;;;13.90;70.40;;;;;;1061832;27;20456;-72
2021/01/02 01:30:23;;;;;;;23.40;5.80;;;13.90;70.50;;;;;;1063450;27;20030;-72
2021/01/02 01:30:58;;;;;;;19.88;6.22;;;13.80;70.90;;;;;;1059665;27;20164;-72
2021/01/02 01:31:42;;;;;;;26.45;6.45;;;13.80;70.90;;;;;;1055585;28;20028;-72
2021/01/02 01:32:20;;;;;;;19.85;5.35;;;13.80;70.90;;;;;;1053933;28;20043;-75
2021/01/02 01:33:02;;;;;;;21.08;5.95;;;13.70;70.80;;;;;;1059703;27;20023;-72
2021/01/02 01:33:40;;;;;;;23.70;5.70;;;13.80;70.80;;;;;;1059010;27;20453;-72
2021/01/02 01:34:20;;;;;;;18.55;5.07;;;13.70;70.70;;;;;;1060711;27;20084;-72
2021/01/02 01:34:56;;;;;;;19.10;5.18;;;13.80;70.70;;;;;;1061013;27;20057;-72
2021/01/02 01:35:27;;;;;;;20.50;5.47;;;13.80;70.70;;;;;;1061949;27;20353;-72
2021/01/02 01:36:02;;;;;;;18.10;5.45;;;13.80;70.80;;;;;;1057953;28;20108;-72
2021/01/02 01:36:35;;;;;;;19.70;5.50;;;13.70;70.80;;;;;;1057372;28;20080;-72
2021/01/02 01:37:08;;;;;;;19.27;5.68;;;13.70;70.90;;;;;;1059762;27;20024;-73
2021/01/02 01:37:41;;;;;;;23.83;5.85;;;13.70;71.10;;;;;;1066107;27;20018;-72
2021/01/02 01:38:18;;;;;;;19.27;5.60;;;13.60;71.20;;;;;;1065901;27;20034;-72
2021/01/02 01:38:55;;;;;;;18.10;5.18;;;13.60;71.00;;;;;;1059983;27;20378;-72
2021/01/02 01:39:28;;;;;;;28.95;5.80;;;13.70;71.10;;;;;;1057250;28;20027;-73
2021/01/02 01:40:01;;;;;;;23.25;5.40;;;13.70;70.90;;;;;;1057024;28;20049;-72
2021/01/02 01:40:35;;;;;;;21.50;5.38;;;13.70;70.90;;;;;;1057447;27;20031;-72
2021/01/02 01:41:15;;;;;;;25.73;5.72;;;13.70;70.80;;;;;;1061946;27;20145;-72
2021/01/02 01:41:52;;;;;;;19.65;5.07;;;13.70;71.30;;;;;;1059274;27;20020;-73
2021/01/02 01:42:41;;;;;;;20.67;6.03;;;13.80;70.70;;;;;;1060542;27;20023;-72
2021/01/02 01:43:44;;;;;;;21.38;5.20;;;13.70;70.70;;;;;;1059110;27;20402;-72
2021/01/02 01:44:49;;;;;;;24.23;5.78;;;13.70;70.40;;;;;;1057778;27;20079;-72
2021/01/02 01:45:57;;;;;;;21.15;5.47;;;13.80;70.50;;;;;;1044900;27;20033;-72
2021/01/02 01:47:02;;;;;;;21.75;5.05;;;13.80;70.50;;;;;;1045031;28;20222;-73
2021/01/02 01:47:42;;;;;;;23.35;5.65;;;13.80;70.50;;;;;;1058493;27;20085;-72
2021/01/02 01:48:33;;;;;;;21.02;5.70;;;13.80;70.50;;;;;;1054190;28;20369;-71
2021/01/02 01:49:11;;;;;;;19.33;5.40;;;13.70;70.70;;;;;;1055273;28;20027;-72
2021/01/02 01:49:57;;;;;;;17.55;5.40;;;13.70;70.70;;;;;;1058789;27;20455;-73
2021/01/02 01:50:46;;;;;;;26.70;7.45;;;13.70;70.70;;;;;;1057011;27;20062;-71
2021/01/02 01:51:39;;;;;;;24.60;6.95;;;13.70;70.70;;;;;;1058969;27;20022;-72
2021/01/02 01:52:25;;;;;;;26.48;8.10;;;13.70;70.80;;;;;;1060164;27;20011;-73
2021/01/02 01:53:24;;;;;;;26.80;7.70;;;13.70;70.90;;;;;;1062207;27;20034;-72
2021/01/02 01:53:56;;;;;;;23.15;6.10;;;13.70;70.90;;;;;;1057978;27;20011;-72
2021/01/02 01:54:43;;;;;;;27.15;6.70;;;13.60;71.20;;;;;;1060695;27;20134;-72
2021/01/02 01:55:19;;;;;;;19.83;5.30;;;13.50;71.10;;;;;;1058655;27;20019;-72
2021/01/02 01:55:58;;;;;;;20.95;5.43;;;13.60;71.30;;;;;;1059073;27;20023;-72
2021/01/02 01:56:43;;;;;;;28.27;5.93;;;13.50;71.90;;;;;;1060327;27;20007;-72
2021/01/02 01:57:25;;;;;;;22.25;6.38;;;13.50;71.70;;;;;;1054503;28;20011;-72
2021/01/02 01:58:40;;;;;;;24.38;5.10;;;13.50;71.50;;;;;;1057332;27;20322;-72
2021/01/02 01:59:23;;;;;;;19.23;4.65;;;13.50;71.40;;;;;;1059226;27;20023;-72
2021/01/02 01:59:57;;;;;;;22.08;5.80;;;13.50;71.60;;;;;;1056650;27;20019;-72
2021/01/02 02:00:43;;;;;;;22.67;5.30;;;13.40;71.70;;;;;;1055379;28;20019;-72
2021/01/02 02:01:23;;;;;;;20.75;5.40;;;13.40;71.70;;;;;;1054512;28;20008;-72
2021/01/02 02:01:55;;;;;;;26.35;5.75;;;13.40;71.70;;;;;;1061898;27;20424;-72
2021/01/02 02:02:45;;;;;;;18.05;5.05;;;13.40;71.70;;;;;;1065618;27;20102;-72
2021/01/02 02:03:23;;;;;;;26.70;5.47;;;13.40;71.70;;;;;;1065915;27;20023;-72
2021/01/02 02:04:17;;;;;;;24.75;5.28;;;13.40;71.70;;;;;;1061368;27;20038;-73
2021/01/02 02:04:49;;;;;;;22.98;5.57;;;13.40;72.00;;;;;;1046862;27;20087;-72
2021/01/02 02:05:24;;;;;;;17.60;5.00;;;13.40;72.00;;;;;;1059798;27;20032;-72
2021/01/02 02:06:22;;;;;;;20.83;5.13;;;13.40;72.00;;;;;;1064189;27;20015;-73
2021/01/02 02:07:01;;;;;;;20.17;4.75;;;13.40;72.00;;;;;;1064883;27;20327;-73
2021/01/02 02:08:10;;;;;;;22.65;5.40;;;13.40;72.00;;;;;;1062037;27;20041;-74
2021/01/02 02:08:56;;;;;;;18.00;4.63;;;13.30;72.30;;;;;;1055180;28;20027;-73
2021/01/02 02:09:58;;;;;;;26.20;5.32;;;13.40;72.20;;;;;;1060948;27;20496;-74
2021/01/02 02:10:32;;;;;;;24.08;5.45;;;13.40;72.10;;;;;;1064118;27;20027;-73
2021/01/02 02:11:05;;;;;;;28.15;5.13;;;13.40;72.00;;;;;;1064354;27;20023;-74
2021/01/02 02:11:42;;;;;;;19.08;5.85;;;13.40;72.00;;;;;;1066226;27;20019;-74
2021/01/02 02:12:23;;;;;;;21.95;5.40;;;13.40;72.00;;;;;;1066364;27;20413;-74
2021/01/02 02:13:00;;;;;;;19.33;5.00;;;13.30;71.90;;;;;;1065895;27;20512;-74
2021/01/02 02:13:43;;;;;;;21.67;5.53;;;13.30;71.80;;;;;;1063561;27;20034;-74
2021/01/02 02:14:32;;;;;;;18.13;4.60;;;13.30;72.00;;;;;;1060462;27;20024;-74
2021/01/02 02:15:08;;;;;;;17.52;4.60;;;13.30;72.20;;;;;;1060895;27;20030;-73
2021/01/02 02:15:54;;;;;;;19.17;5.47;;;13.30;72.30;;;;;;1061810;27;20072;-73
2021/01/02 02:16:39;;;;;;;21.02;5.78;;;13.20;72.50;;;;;;1063707;27;20098;-73
2021/01/02 02:17:17;;;;;;;13.82;4.47;;;13.20;72.50;;;;;;1056958;28;20426;-73
2021/01/02 02:18:05;;;;;;;18.02;5.28;;;13.20;72.50;;;;;;1055032;28;20392;-73
2021/01/02 02:18:45;;;;;;;19.73;4.70;;;13.20;72.50;;;;;;1056643;27;20520;-74
2021/01/02 02:19:54;;;;;;;20.80;5.70;;;13.20;72.40;;;;;;1064872;27;20027;-73
2021/01/02 02:20:30;;;;;;;23.38;5.07;;;13.30;72.40;;;;;;1066322;27;20022;-73
2021/01/02 02:21:01;;;;;;;24.98;5.63;;;13.30;72.20;;;;;;1063703;27;20030;-73
2021/01/02 02:21:43;;;;;;;17.60;5.40;;;13.30;72.30;;;;;;1065094;27;20078;-73
2021/01/02 02:22:16;;;;;;;17.75;4.90;;;13.30;72.40;;;;;;1056891;28;20114;-73
2021/01/02 02:23:01;;;;;;;16.98;4.80;;;13.30;72.40;;;;;;1062281;27;20119;-73
2021/01/02 02:23:46;;;;;;;29.77;5.10;;;13.30;72.40;;;;;;1059949;27;20016;-73
2021/01/02 02:24:23;;;;;;;25.92;5.47;;;13.20;72.40;;;;;;1065519;27;20023;-72
2021/01/02 02:24:56;;;;;;;18.42;5.03;;;13.20;72.30;;;;;;1063578;27;20026;-72
2021/01/02 02:25:46;;;;;;;24.73;6.07;;;13.30;72.40;;;;;;1060725;27;20022;-72
2021/01/02 02:26:34;;;;;;;23.50;5.35;;;13.20;72.30;;;;;;1060043;27;20044;-72
2021/01/02 02:27:09;;;;;;;20.02;4.95;;;13.30;72.20;;;;;;1066075;27;20022;-72
2021/01/02 02:27:43;;;;;;;17.40;4.75;;;13.20;72.00;;;;;;1065930;27;20362;-72
2021/01/02 02:28:57;;;;;;;20.67;5.10;;;13.20;71.90;;;;;;1064172;27;20027;-72
2021/01/02 02:29:48;;;;;;;17.70;5.18;;;13.20;72.00;;;;;;1066237;27;20062;-72
2021/01/02 02:30:32;;;;;;;17.17;4.80;;;13.20;72.00;;;;;;1061217;27;20023;-73
2021/01/02 02:31:05;;;;;;;20.25;4.85;;;13.20;72.00;;;;;;1059420;27;20026;-72
2021/01/02 02:31:45;;;;;;;21.55;5.53;;;13.20;72.00;;;;;;1058779;28;20024;-72
2021/01/02 02:32:18;;;;;;;18.52;4.95;;;13.20;72.10;;;;;;1062529;27;20062;-71
2021/01/02 02:32:49;;;;;;;24.70;5.85;;;13.20;72.10;;;;;;1061553;27;20023;-72
2021/01/02 02:33:25;;;;;;;23.63;5.53;;;13.20;72.20;;;;;;1063944;27;20019;-72
2021/01/02 02:33:59;;;;;;;19.55;5.20;;;13.10;72.10;;;;;;1059507;27;20055;-73
2021/01/02 02:34:30;;;;;;;22.75;5.82;;;13.10;72.20;;;;;;1058765;27;20062;-72
2021/01/02 02:35:10;;;;;;;20.50;5.28;;;13.10;72.10;;;;;;1055464;28;20437;-72
2021/01/02 02:35:43;;;;;;;19.48;5.35;;;13.20;72.00;;;;;;1053109;28;20369;-71
2021/01/02 02:36:15;;;;;;;18.77;5.22;;;13.20;71.90;;;;;;1057999;27;20103;-71
2021/01/02 02:36:46;;;;;;;15.65;4.93;;;13.20;71.80;;;;;;1061038;27;20134;-72
2021/01/02 02:37:17;;;;;;;21.42;5.03;;;13.20;71.80;;;;;;1059256;27;20024;-72
2021/01/02 02:37:53;;;;;;;21.05;5.70;;;13.20;71.80;;;;;;1061346;27;20027;-72
2021/01/02 02:38:25;;;;;;;23.55;5.78;;;13.10;71.80;;;;;;1058941;28;20024;-72
2021/01/02 02:39:03;;;;;;;24.23;5.88;;;13.20;71.90;;;;;;1059249;28;20549;-72
2021/01/02 02:39:35;;;;;;;16.58;5.60;;;13.20;71.80;;;;;;1061388;27;20019;-73
2021/01/02 02:40:10;;;;;;;22.50;6.30;;;13.10;71.70;;;;;;1062500;27;20068;-72
2021/01/02 02:40:41;;;;;;;21.90;6.95;;;13.10;71.70;;;;;;1065805;27;20455;-72
2021/01/02 02:41:16;;;;;;;22.50;7.22;;;13.10;71.60;;;;;;1062784;27;20114;-72
2021/01/02 02:41:53;;;;;;;21.27;6.80;;;13.10;71.40;;;;;;1061836;27;20437;-72
2021/01/02 02:42:28;;;;;;;20.33;7.22;;;13.10;71.50;;;;;;1062694;27;20344;-72
2021/01/02 02:43:03;;;;;;;26.48;7.57;;;13.10;71.40;;;;;;1062182;27;20007;-72
2021/01/02 02:43:39;;;;;;;21.45;8.10;;;13.10;71.40;;;;;;1063316;27;20059;-71
2021/01/02 02:44:12;;;;;;;25.17;7.53;;;13.10;71.30;;;;;;1063263;27;20098;-72
2021/01/02 02:44:48;;;;;;;23.00;8.18;;;13.10;71.30;;;;;;1056912;28;20031;-72
2021/01/02 02:45:21;;;;;;;24.25;8.02;;;13.10;71.30;;;;;;1060860;28;20038;-72
2021/01/02 02:45:56;;;;;;;21.73;7.53;;;13.10;71.20;;;;;;1061321;28;20449;-72
2021/01/02 02:46:32;;;;;;;22.52;6.80;;;13.10;71.20;;;;;;1062976;27;20014;-71
2021/01/02 02:47:06;;;;;;;25.88;7.28;;;13.10;71.00;;;;;;1063670;27;20106;-72
2021/01/02 02:47:41;;;;;;;20.10;7.32;;;13.00;70.80;;;;;;1065713;27;20329;-72
2021/01/02 02:48:15;;;;;;;22.80;7.60;;;13.00;70.80;;;;;;1065759;27;20018;-72
2021/01/02 02:48:48;;;;;;;22.65;8.15;;;13.00;70.80;;;;;;1065801;27;20015;-72
2021/01/02 02:49:23;;;;;;;27.75;8.32;;;13.00;70.90;;;;;;1061155;28;20057;-72
2021/01/02 02:49:58;;;;;;;21.63;7.85;;;13.00;71.00;;;;;;1061270;28;20019;-72
2021/01/02 02:50:32;;;;;;;23.02;7.80;;;13.00;71.00;;;;;;1061395;28;20011;-72
2021/01/02 02:51:04;;;;;;;21.85;6.43;;;13.00;71.00;;;;;;1058516;28;20020;-72
2021/01/02 02:51:47;;;;;;;21.27;6.22;;;12.90;72.20;;;;;;1061391;28;20011;-72
2021/01/02 02:52:20;;;;;;;19.05;6.28;;;12.90;71.90;;;;;;1057147;28;20080;-72
2021/01/02 02:53:07;;;;;;;24.33;6.47;;;12.90;71.80;;;;;;1062352;27;20011;-72
2021/01/02 02:53:39;;;;;;;21.75;6.43;;;12.90;71.80;;;;;;1065851;27;20504;-72
2021/01/02 02:54:11;;;;;;;25.38;6.30;;;12.90;71.70;;;;;;1061130;28;20019;-73
2021/01/02 02:54:43;;;;;;;20.08;6.07;;;12.90;71.80;;;;;;1061349;28;20011;-72
2021/01/02 02:55:14;;;;;;;20.52;5.78;;;12.80;71.70;;;;;;1056897;28;20024;-72
2021/01/02 02:55:46;;;;;;;25.50;6.32;;;12.80;71.80;;;;;;1057336;28;20099;-72
2021/01/02 02:56:17;;;;;;;23.13;6.60;;;12.80;72.00;;;;;;1057248;28;20019;-72
2021/01/02 02:56:49;;;;;;;20.90;5.78;;;12.80;72.00;;;;;;1060695;27;20013;-72
2021/01/02 02:57:22;;;;;;;18.17;5.43;;;12.80;72.10;;;;;;1065726;27;20011;-72
2021/01/02 02:57:54;;;;;;;18.20;5.28;;;12.80;72.10;;;;;;1065682;27;20018;-72
2021/01/02 02:58:26;;;;;;;20.98;5.88;;;12.80;72.00;;;;;;1061243;28;20399;-72
2021/01/02 02:58:57;;;;;;;23.15;5.70;;;12.80;72.00;;;;;;1059797;28;20015;-72
2021/01/02 02:59:29;;;;;;;24.00;6.00;;;12.80;72.00;;;;;;1055729;28;20020;-72
2021/01/02 03:00:00;;;;;;;23.13;5.90;;;12.80;71.90;;;;;;1057223;28;20119;-72
2021/01/02 03:00:32;;;;;;;19.55;5.45;;;12.80;71.90;;;;;;1061119;28;20011;-72
2021/01/02 03:01:03;;;;;;;19.83;6.03;;;12.80;71.90;;;;;;1054006;28;20033;-72
2021/01/02 03:01:34;;;;;;;23.45;5.68;;;12.80;71.70;;;;;;1049604;28;20033;-72
2021/01/02 03:02:06;;;;;;;18.15;5.65;;;12.80;71.70;;;;;;1055200;28;20039;-72
2021/01/02 03:02:39;;;;;;;19.80;5.10;;;12.80;71.80;;;;;;1050860;28;20017;-72
2021/01/02 03:03:11;;;;;;;17.23;4.95;;;12.80;71.70;;;;;;1057960;27;20012;-72
2021/01/02 03:03:48;;;;;;;20.00;5.65;;;12.80;71.70;;;;;;1061809;27;20027;-73
2021/01/02 03:04:20;;;;;;;18.08;5.60;;;12.80;71.70;;;;;;1063779;27;20043;-73
2021/01/02 03:04:51;;;;;;;15.80;5.15;;;12.80;71.70;;;;;;1066482;27;20015;-72
2021/01/02 03:05:23;;;;;;;15.20;5.07;;;12.80;71.70;;;;;;1063950;27;20068;-72
2021/01/02 03:05:54;;;;;;;17.42;4.88;;;12.80;71.50;;;;;;1064705;27;20488;-72
2021/01/02 03:06:31;;;;;;;20.65;5.78;;;12.80;71.50;;;;;;1065404;27;20083;-72
2021/01/02 03:07:05;;;;;;;20.08;5.82;;;12.80;72.20;;;;;;1066436;27;20402;-72
2021/01/02 03:07:45;;;;;;;26.52;5.80;;;12.80;71.60;;;;;;1059639;27;20452;-73
2021/01/02 03:08:17;;;;;;;20.52;5.72;;;12.70;71.50;;;;;;1057624;28;20020;-73
2021/01/02 03:08:53;;;;;;;21.33;5.60;;;12.70;71.50;;;;;;1057464;28;20408;-73
2021/01/02 03:09:25;;;;;;;19.17;5.43;;;12.80;71.60;;;;;;1057898;27;20028;-72
2021/01/02 03:09:56;;;;;;;22.13;5.78;;;12.70;71.60;;;;;;1057469;28;20034;-72
2021/01/02 03:10:27;;;;;;;18.40;5.60;;;12.70;71.60;;;;;;1062216;27;20567;-72
2021/01/02 03:11:02;;;;;;;18.70;5.10;;;12.70;71.60;;;;;;1061981;27;20075;-73
2021/01/02 03:11:35;;;;;;;19.98;5.13;;;12.60;71.30;;;;;;1060022;27;20023;-72
2021/01/02 03:12:06;;;;;;;20.88;4.93;;;12.60;71.40;;;;;;1060566;27;20029;-72
2021/01/02 03:12:46;;;;;;;20.38;4.97;;;12.60;71.30;;;;;;1061249;27;20023;-72
2021/01/02 03:13:18;;;;;;;17.90;4.78;;;12.60;71.30;;;;;;1060747;27;20023;-73
2021/01/02 03:13:49;;;;;;;16.65;5.40;;;12.60;71.20;;;;;;1058958;27;20063;-71
2021/01/02 03:14:20;;;;;;;17.05;5.40;;;12.60;71.20;;;;;;1062073;27;20051;-71
2021/01/02 03:14:58;;;;;;;16.48;5.00;;;12.60;71.20;;;;;;1065628;27;20022;-72
2021/01/02 03:15:41;;;;;;;18.38;5.10;;;12.60;71.20;;;;;;1059284;27;20150;-72
2021/01/02 03:16:12;;;;;;;17.23;5.90;;;12.60;71.00;;;;;;1059850;27;20031;-72
2021/01/02 03:16:43;;;;;;;18.25;5.88;;;12.60;70.90;;;;;;1056572;28;20031;-72
2021/01/02 03:17:15;;;;;;;19.52;6.47;;;12.60;71.00;;;;;;1058622;27;20027;-73
2021/01/02 03:17:47;;;;;;;20.35;7.57;;;12.60;71.00;;;;;;1059500;27;20031;-72
2021/01/02 03:18:18;;;;;;;27.00;8.57;;;12.60;71.60;;;;;;1061614;27;20057;-72
2021/01/02 03:18:50;;;;;;;21.08;8.35;;;12.60;71.00;;;;;;1062151;27;20038;-72
2021/01/02 03:19:23;;;;;;;16.67;7.03;;;12.60;71.00;;;;;;1063226;27;20054;-72
2021/01/02 03:19:54;;;;;;;16.23;6.50;;;12.60;71.00;;;;;;1060385;27;20150;-72
2021/01/02 03:20:25;;;;;;;15.27;6.90;;;12.60;70.90;;;;;;1065538;27;20041;-72
2021/01/02 03:20:57;;;;;;;16.38;6.90;;;12.60;70.80;;;;;;1058319;27;20052;-72
2021/01/02 03:21:28;;;;;;;16.23;6.20;;;12.60;70.70;;;;;;1060623;27;20441;-73
2021/01/02 03:21:59;;;;;;;18.67;6.13;;;12.60;70.60;;;;;;1061047;27;20573;-72
2021/01/02 03:22:31;;;;;;;17.67;5.57;;;12.60;70.60;;;;;;1058335;27;20087;-72
2021/01/02 03:23:03;;;;;;;16.17;4.90;;;12.50;70.60;;;;;;1061929;27;20087;-71
2021/01/02 03:23:46;;;;;;;18.30;5.25;;;12.50;70.60;;;;;;1065566;27;20086;-71
2021/01/02 03:24:18;;;;;;;15.50;5.38;;;12.50;70.70;;;;;;1064753;27;20096;-71
2021/01/02 03:24:49;;;;;;;16.13;5.43;;;12.40;70.80;;;;;;1059883;27;20039;-72
2021/01/02 03:25:21;;;;;;;16.23;5.43;;;12.40;71.10;;;;;;1057239;28;20055;-72
2021/01/02 03:25:52;;;;;;;18.42;6.13;;;12.40;71.20;;;;;;1058383;28;20180;-72